Time;durP1;ratioP1;P1;durP2;ratioP2;P2;SDS_P1;SDS_P2;PMS_P1;PMS_P2;Temp;Humidity;BMP_temperature;BMP_pressure;BME280_temperature;BME280_humidity;BME280_pressure;Samples;Min_cycle;Max_cycle;Signal;HPM_P1;HPM_P2
2021/04/06 00:01:59;;;;;;;3.83;1.90;;;;;;;-1.64;78.13;95883.41;5110086;28;20039;-66
2021/04/06 00:04:31;;;;;;;6.25;2.33;;;;;;;-1.65;78.50;95879.94;5110907;28;20097;-66
2021/04/06 00:07:00;;;;;;;5.72;2.40;;;;;;;-1.65;79.05;95882.59;5109850;28;20047;-66
2021/04/06 00:09:29;;;;;;;5.95;2.42;;;;;;;-1.66;79.18;95885.53;5110225;28;20036;-66
2021/04/06 00:11:59;;;;;;;6.78;2.45;;;;;;;-1.67;79.64;95878.56;5110257;28;20113;-68
2021/04/06 00:14:26;;;;;;;4.70;2.70;;;;;;;-1.72;80.11;95878.50;5109839;28;20043;-66
2021/04/06 00:16:55;;;;;;;4.82;2.30;;;;;;;-1.73;80.48;95875.03;5110535;28;20040;-66
2021/04/06 00:19:24;;;;;;;9.27;2.55;;;;;;;-1.76;80.64;95874.75;5108991;28;20095;-66
2021/04/06 00:21:53;;;;;;;4.22;2.42;;;;;;;-1.84;81.13;95868.78;5110790;28;20055;-66
2021/04/06 00:24:22;;;;;;;7.47;3.45;;;;;;;-1.75;81.18;95858.47;5109327;28;20036;-66
2021/04/06 00:26:52;;;;;;;7.18;2.72;;;;;;;-1.76;81.07;95869.41;5110673;28;20524;-66
2021/04/06 00:29:21;;;;;;;5.15;2.80;;;;;;;-1.70;80.96;95863.88;5109425;28;20097;-66
2021/04/06 00:31:51;;;;;;;7.50;2.75;;;;;;;-1.68;80.85;95858.28;5110416;28;20097;-66
2021/04/06 00:34:22;;;;;;;7.05;3.00;;;;;;;-1.64;80.98;95859.38;5109831;28;20035;-67
2021/04/06 00:36:51;;;;;;;5.80;2.70;;;;;;;-1.63;80.43;95861.78;5110061;28;20058;-66
2021/04/06 00:39:25;;;;;;;8.20;3.03;;;;;;;-1.59;80.07;95862.09;5110202;28;20040;-69
2021/04/06 00:41:52;;;;;;;5.93;2.60;;;;;;;-1.59;79.54;95870.09;5109547;28;20040;-68
2021/04/06 00:44:18;;;;;;;5.85;3.25;;;;;;;-1.73;79.71;95863.56;5110379;28;20050;-68
2021/04/06 00:46:45;;;;;;;5.63;2.78;;;;;;;-1.66;80.18;95864.19;5109694;28;20048;-68
2021/04/06 00:49:13;;;;;;;7.43;2.78;;;;;;;-1.60;79.46;95868.50;5127885;28;20044;-68
2021/04/06 00:51:41;;;;;;;5.72;2.63;;;;;;;-1.55;79.59;95865.09;5125036;28;20093;-66
2021/04/06 00:54:08;;;;;;;5.00;2.80;;;;;;;-1.44;79.01;95864.09;5109714;28;20039;-67
2021/04/06 00:56:36;;;;;;;5.60;2.95;;;;;;;-1.46;78.55;95859.03;5110184;28;20046;-66
2021/04/06 00:59:04;;;;;;;5.90;3.15;;;;;;;-1.45;78.54;95855.28;5109389;28;20058;-68
2021/04/06 01:01:36;;;;;;;10.93;3.30;;;;;;;-1.47;78.26;95857.41;5110648;28;20063;-66
2021/04/06 01:04:05;;;;;;;6.43;2.50;;;;;;;-1.42;77.90;95854.78;5108993;28;20039;-67
2021/04/06 01:06:33;;;;;;;6.85;3.00;;;;;;;-1.42;77.48;95854.78;5110640;28;20096;-66
2021/04/06 01:09:00;;;;;;;5.55;2.65;;;;;;;-1.38;77.25;95852.41;5109375;28;20084;-66
2021/04/06 01:11:27;;;;;;;6.93;2.75;;;;;;;-1.38;77.08;95855.88;5109702;28;20757;-66
2021/04/06 01:14:01;;;;;;;6.30;2.58;;;;;;;-1.42;77.23;95851.28;5109807;28;20044;-66
2021/04/06 01:16:28;;;;;;;5.43;2.50;;;;;;;-1.44;77.46;95851.56;5109414;28;20055;-66
2021/04/06 01:18:54;;;;;;;6.18;2.85;;;;;;;-1.32;77.15;95852.19;5126491;27;20062;-66
2021/04/06 01:21:22;;;;;;;5.57;2.75;;;;;;;-1.22;77.06;95845.31;5130855;27;20120;-67
2021/04/06 01:23:49;;;;;;;7.18;2.75;;;;;;;-1.19;76.83;95842.16;5114172;28;20051;-67
2021/04/06 01:26:15;;;;;;;6.38;2.70;;;;;;;-1.17;76.64;95850.69;5112280;28;20039;-66
2021/04/06 01:28:41;;;;;;;5.13;2.40;;;;;;;-1.24;76.32;95850.13;5114149;28;20525;-67
2021/04/06 01:31:08;;;;;;;4.25;2.20;;;;;;;-1.22;75.94;95837.31;5112370;28;20230;-67
2021/04/06 01:33:35;;;;;;;5.70;2.53;;;;;;;-1.20;75.82;95829.81;5113875;28;20050;-66
2021/04/06 01:36:06;;;;;;;5.15;2.97;;;;;;;-1.26;75.95;95831.66;5112614;28;20039;-70
2021/04/06 01:38:33;;;;;;;5.15;2.65;;;;;;;-1.17;76.12;95823.97;5113517;28;20051;-67
2021/04/06 01:41:03;;;;;;;4.05;2.40;;;;;;;-1.18;74.97;95827.72;5113287;28;20043;-67
2021/04/06 01:43:30;;;;;;;4.75;2.80;;;;;;;-1.21;74.72;95822.88;5112606;28;20071;-67
2021/04/06 01:45:58;;;;;;;6.22;2.45;;;;;;;-1.19;74.51;95815.44;5113716;28;20042;-66
2021/04/06 01:48:28;;;;;;;7.80;2.65;;;;;;;-1.17;74.34;95819.44;5112086;28;20130;-66
2021/04/06 01:50:55;;;;;;;5.35;2.22;;;;;;;-1.30;73.38;95813.75;5113977;28;20039;-66
2021/04/06 01:53:23;;;;;;;7.32;2.47;;;;;;;-1.27;73.35;95810.56;5111847;27;21543;-67
2021/04/06 01:55:52;;;;;;;4.38;2.40;;;;;;;-1.37;73.10;95809.41;5113614;28;20142;-66
2021/04/06 01:58:21;;;;;;;5.60;2.15;;;;;;;-1.35;72.76;95807.31;5112272;28;20070;-67
2021/04/06 02:01:00;;;;;;;7.70;2.75;;;;;;;-1.36;73.24;95808.38;5112796;28;20044;-66
2021/04/06 02:03:29;;;;;;;4.55;2.10;;;;;;;-1.36;73.04;95808.38;5112708;28;20513;-67
2021/04/06 02:05:56;;;;;;;4.32;2.20;;;;;;;-1.44;72.50;95811.50;5112263;28;20062;-66
2021/04/06 02:08:24;;;;;;;5.10;2.33;;;;;;;-1.47;72.22;95820.00;5112984;28;20056;-66
2021/04/06 02:10:51;;;;;;;4.38;2.33;;;;;;;-1.60;72.14;95804.44;5111972;28;20105;-66
2021/04/06 02:13:19;;;;;;;5.03;2.22;;;;;;;-1.62;72.43;95806.53;5112719;28;20610;-66
2021/04/06 02:15:55;;;;;;;6.22;2.28;;;;;;;-1.64;72.26;95808.66;5113192;28;20465;-66
2021/04/06 02:18:23;;;;;;;3.97;2.53;;;;;;;-1.73;72.28;95815.50;5122741;27;20092;-66
2021/04/06 02:20:54;;;;;;;5.28;1.90;;;;;;;-1.81;72.29;95814.13;5133081;27;20414;-68
2021/04/06 02:23:20;;;;;;;8.02;2.65;;;;;;;-1.85;72.72;95819.16;5112659;27;20059;-66
2021/04/06 02:25:52;;;;;;;6.63;2.05;;;;;;;-1.84;72.39;95818.09;5112738;28;20047;-68
2021/04/06 02:28:18;;;;;;;5.38;2.25;;;;;;;-1.84;72.73;95818.09;5111204;28;20402;-65
2021/04/06 02:30:56;;;;;;;6.43;2.63;;;;;;;-1.86;72.50;95828.22;5111777;28;20414;-68
2021/04/06 02:33:23;;;;;;;7.47;2.78;;;;;;;-1.86;72.65;95824.75;5111264;28;20460;-68
2021/04/06 02:35:57;;;;;;;5.80;2.40;;;;;;;-1.81;72.88;95826.66;5112597;28;20040;-66
2021/04/06 02:38:23;;;;;;;9.50;2.90;;;;;;;-1.75;72.76;95825.66;5111506;28;20044;-66
2021/04/06 02:41:01;;;;;;;7.78;2.45;;;;;;;-1.71;72.44;95824.09;5111953;28;20380;-66
2021/04/06 02:43:40;;;;;;;4.82;2.55;;;;;;;-1.78;72.20;95818.13;5112225;28;20460;-66
2021/04/06 02:46:07;;;;;;;7.80;2.67;;;;;;;-1.84;72.58;95812.75;5110970;28;20040;-66
2021/04/06 02:48:34;;;;;;;6.32;2.33;;;;;;;-1.87;72.47;95821.28;5124930;27;20100;-66
2021/04/06 02:51:00;;;;;;;4.97;2.47;;;;;;;-2.04;72.78;95809.88;5131986;27;20605;-66
2021/04/06 02:53:26;;;;;;;5.40;2.38;;;;;;;-2.18;73.38;95809.50;5112020;27;20101;-66
2021/04/06 02:55:53;;;;;;;5.65;2.38;;;;;;;-2.33;74.37;95808.53;5111531;28;20044;-66
2021/04/06 02:58:19;;;;;;;8.70;2.80;;;;;;;-2.38;75.00;95804.72;5111414;28;20681;-66
2021/04/06 03:00:45;;;;;;;6.32;2.53;;;;;;;-2.34;75.32;95806.91;5111730;28;20043;-68
2021/04/06 03:03:22;;;;;;;7.53;3.78;;;;;;;-2.37;75.04;95806.34;5111084;28;20040;-66
2021/04/06 03:06:00;;;;;;;6.53;2.80;;;;;;;-2.36;75.03;95802.59;5111968;28;20050;-66
2021/04/06 03:08:29;;;;;;;7.10;2.97;;;;;;;-2.41;74.95;95789.22;5110415;28;20043;-66
2021/04/06 03:10:55;;;;;;;6.32;2.70;;;;;;;-2.42;75.09;95798.28;5111952;28;20047;-66
2021/04/06 03:13:24;;;;;;;8.15;3.30;;;;;;;-2.47;75.03;95792.09;5110289;28;20055;-66
2021/04/06 03:15:51;;;;;;;7.50;3.25;;;;;;;-2.41;75.11;95799.88;5111767;28;20039;-66
2021/04/06 03:18:17;;;;;;;9.45;2.80;;;;;;;-2.36;75.20;95789.28;5110101;27;20040;-66
2021/04/06 03:20:44;;;;;;;7.95;3.00;;;;;;;-2.34;74.62;95798.91;5111327;28;20411;-66
2021/04/06 03:23:10;;;;;;;6.60;3.20;;;;;;;-2.21;74.57;95801.16;5110926;28;20043;-66
2021/04/06 03:25:38;;;;;;;5.45;3.10;;;;;;;-2.14;74.42;95801.78;5110948;28;20128;-66
2021/04/06 03:28:06;;;;;;;8.30;3.15;;;;;;;-2.07;74.13;95799.72;5111134;28;20100;-66
2021/04/06 03:30:34;;;;;;;5.68;2.78;;;;;;;-2.14;74.05;95794.59;5110528;28;20044;-66
2021/04/06 03:33:01;;;;;;;6.25;2.78;;;;;;;-2.19;74.42;95791.06;5111679;28;20047;-66
2021/04/06 03:35:28;;;;;;;11.07;3.03;;;;;;;-2.26;74.75;95780.59;5110233;28;20035;-66
2021/04/06 03:37:55;;;;;;;6.25;3.17;;;;;;;-2.28;74.93;95787.25;5111534;28;20039;-66
2021/04/06 03:40:21;;;;;;;5.47;3.20;;;;;;;-2.30;75.13;95789.34;5110074;28;20050;-66
2021/04/06 03:42:47;;;;;;;7.55;3.92;;;;;;;-2.30;75.42;95782.13;5110603;28;20042;-66
2021/04/06 03:45:14;;;;;;;8.30;3.33;;;;;;;-2.36;75.94;95791.94;5106539;27;20047;-66
2021/04/06 03:47:54;;;;;;;6.88;3.22;;;;;;;-2.41;76.45;95783.88;5110559;28;20039;-66
2021/04/06 03:50:38;;;;;;;7.75;3.58;;;;;;;-2.30;76.46;95784.00;5110862;28;20051;-67
2021/04/06 03:53:07;;;;;;;8.10;3.92;;;;;;;-2.36;76.46;95789.28;5103912;28;20035;-67
2021/04/06 03:55:33;;;;;;;8.20;3.72;;;;;;;-2.26;76.47;95793.91;5111244;28;20050;-66
2021/04/06 03:58:11;;;;;;;7.97;3.88;;;;;;;-2.27;76.78;95783.50;5110132;28;20035;-66
2021/04/06 04:00:37;;;;;;;8.05;4.03;;;;;;;-2.31;76.67;95782.38;5110492;28;20114;-66
2021/04/06 04:03:03;;;;;;;8.00;3.83;;;;;;;-2.26;76.67;95783.25;5110488;28;20093;-66
2021/04/06 04:05:29;;;;;;;9.02;3.78;;;;;;;-2.25;76.76;95776.06;5110422;28;20046;-66
2021/04/06 04:07:56;;;;;;;5.90;3.60;;;;;;;-2.25;76.97;95782.19;5110809;28;20042;-66
2021/04/06 04:10:23;;;;;;;8.32;3.85;;;;;;;-2.28;76.71;95782.72;5109513;28;20171;-66
2021/04/06 04:12:50;;;;;;;8.38;3.53;;;;;;;-2.39;77.40;95781.78;5111015;28;20052;-65
2021/04/06 04:15:17;;;;;;;7.95;3.80;;;;;;;-2.33;77.43;95779.97;5109334;28;20051;-66
2021/04/06 04:17:46;;;;;;;9.85;4.30;;;;;;;-2.48;77.55;95767.28;5111014;28;20046;-66
2021/04/06 04:20:14;;;;;;;8.15;3.75;;;;;;;-2.48;78.08;95772.63;5109639;28;20040;-66
2021/04/06 04:22:40;;;;;;;8.70;4.20;;;;;;;-2.58;77.94;95775.16;5110265;28;20435;-66
2021/04/06 04:25:08;;;;;;;9.20;4.35;;;;;;;-2.61;78.00;95773.03;5109649;28;20040;-66
2021/04/06 04:27:35;;;;;;;9.00;4.53;;;;;;;-2.63;78.30;95775.09;5110122;28;20067;-66
2021/04/06 04:30:01;;;;;;;9.23;4.10;;;;;;;-2.63;78.16;95781.25;5110373;28;20047;-66
2021/04/06 04:32:27;;;;;;;7.50;4.30;;;;;;;-2.60;78.21;95773.81;5109486;28;20039;-66
2021/04/06 04:34:53;;;;;;;14.02;4.55;;;;;;;-2.60;78.19;95777.28;5111002;28;20046;-66
2021/04/06 04:37:19;;;;;;;9.77;4.32;;;;;;;-2.65;78.44;95777.22;5110246;28;20122;-66
2021/04/06 04:39:45;;;;;;;8.20;4.60;;;;;;;-2.68;78.40;95777.72;5110936;28;20043;-66
2021/04/06 04:42:11;;;;;;;8.45;4.25;;;;;;;-2.72;78.66;95774.72;5109244;28;20097;-66
2021/04/06 04:44:38;;;;;;;10.38;4.93;;;;;;;-2.71;78.80;95783.56;5110416;28;20525;-66
2021/04/06 04:47:04;;;;;;;9.95;4.50;;;;;;;-2.64;78.63;95787.63;5109432;28;20043;-66
2021/04/06 04:49:30;;;;;;;8.82;4.63;;;;;;;-2.65;78.52;95788.69;5110233;28;20040;-66
2021/04/06 04:51:56;;;;;;;8.07;4.85;;;;;;;-2.63;78.52;95783.09;5109606;28;20073;-66
2021/04/06 04:54:22;;;;;;;15.68;5.40;;;;;;;-2.58;78.46;95787.69;5111632;28;20146;-66
2021/04/06 04:56:48;;;;;;;7.35;4.10;;;;;;;-2.55;78.25;95777.34;5114425;28;20040;-66
2021/04/06 04:59:14;;;;;;;8.90;4.38;;;;;;;-2.54;77.97;95781.63;5114067;28;20048;-66
2021/04/06 05:01:41;;;;;;;7.72;4.57;;;;;;;-2.58;78.01;95782.38;5114553;28;20406;-66
2021/04/06 05:04:07;;;;;;;8.75;4.97;;;;;;;-2.52;78.13;95784.84;5112845;28;20039;-67
2021/04/06 05:06:33;;;;;;;8.70;4.65;;;;;;;-2.52;77.80;95781.38;5114745;28;20067;-66
2021/04/06 05:09:00;;;;;;;9.00;4.40;;;;;;;-2.61;77.76;95786.34;5113335;28;20035;-66
2021/04/06 05:11:26;;;;;;;8.82;4.65;;;;;;;-2.67;78.08;95789.97;5113613;28;20499;-66
2021/04/06 05:13:52;;;;;;;7.35;4.15;;;;;;;-2.64;78.26;95792.16;5113617;28;20050;-66
2021/04/06 05:16:18;;;;;;;8.27;4.20;;;;;;;-2.67;78.19;95792.66;5113247;28;20032;-66
2021/04/06 05:18:45;;;;;;;11.55;4.22;;;;;;;-2.69;78.24;95784.09;5113789;28;20047;-66
2021/04/06 05:21:11;;;;;;;13.30;5.15;;;;;;;-2.62;78.13;95792.72;5113303;28;20039;-66
2021/04/06 05:23:37;;;;;;;8.95;4.45;;;;;;;-2.60;77.90;95789.81;5114073;28;20074;-66
2021/04/06 05:26:03;;;;;;;12.20;4.25;;;;;;;-2.61;78.15;95791.69;5113470;28;20613;-67
2021/04/06 05:28:29;;;;;;;7.05;3.83;;;;;;;-2.59;78.04;95797.56;5114121;28;20048;-66
2021/04/06 05:30:55;;;;;;;9.55;4.20;;;;;;;-2.55;78.17;95806.66;5112843;28;20047;-66
2021/04/06 05:33:21;;;;;;;8.48;4.03;;;;;;;-2.62;77.83;95800.69;5113472;28;20048;-67
2021/04/06 05:35:48;;;;;;;8.93;4.30;;;;;;;-2.57;78.05;95798.09;5113183;28;20070;-66
2021/04/06 05:38:14;;;;;;;8.02;3.80;;;;;;;-2.54;78.10;95799.47;5112941;28;20043;-66
2021/04/06 05:40:40;;;;;;;7.63;3.67;;;;;;;-2.51;77.98;95799.75;5113318;28;20097;-66
2021/04/06 05:43:07;;;;;;;8.93;3.97;;;;;;;-2.44;77.89;95795.06;5112668;28;20040;-67
2021/04/06 05:45:34;;;;;;;8.45;4.18;;;;;;;-2.46;77.76;95797.16;5113627;28;20123;-66
2021/04/06 05:48:03;;;;;;;12.60;3.90;;;;;;;-2.48;77.56;95793.94;5112586;28;20050;-66
2021/04/06 05:50:30;;;;;;;7.07;3.67;;;;;;;-2.43;77.66;95793.22;5113642;28;20051;-66
2021/04/06 05:52:57;;;;;;;8.63;3.90;;;;;;;-2.46;77.57;95791.81;5113202;27;20406;-66
2021/04/06 05:55:23;;;;;;;8.38;3.90;;;;;;;-2.45;77.31;95793.47;5113237;28;20486;-66
2021/04/06 05:57:48;;;;;;;6.47;3.40;;;;;;;-2.42;77.23;95798.28;5112495;28;20074;-66
2021/04/06 06:00:16;;;;;;;11.70;4.00;;;;;;;-2.38;76.66;95794.06;5112461;28;20480;-67
2021/04/06 06:02:42;;;;;;;7.10;3.67;;;;;;;-2.33;76.96;95789.84;5112732;28;20674;-68
2021/04/06 06:05:09;;;;;;;5.95;3.00;;;;;;;-2.33;76.52;95789.84;5112031;28;20043;-68
2021/04/06 06:07:35;;;;;;;7.45;3.15;;;;;;;-2.29;76.23;95793.63;5113101;28;20044;-69
2021/04/06 06:10:24;;;;;;;6.70;3.28;;;;;;;-2.34;76.12;95793.56;5112422;28;20036;-68
2021/04/06 06:12:51;;;;;;;8.23;3.55;;;;;;;-2.21;76.39;95798.50;5113298;28;20097;-68
2021/04/06 06:15:17;;;;;;;8.75;3.83;;;;;;;-2.21;75.38;95793.97;5111638;28;20112;-68
2021/04/06 06:18:01;;;;;;;7.32;3.90;;;;;;;-2.17;75.84;95791.63;5113109;28;20065;-68
2021/04/06 06:20:27;;;;;;;6.38;3.40;;;;;;;-2.19;75.43;95793.75;5112219;28;20063;-68
2021/04/06 06:22:54;;;;;;;7.75;3.38;;;;;;;-2.13;75.56;95793.53;5112503;28;20039;-68
2021/04/06 06:25:19;;;;;;;5.88;3.00;;;;;;;-2.07;75.02;95783.72;5111900;28;20055;-68
2021/04/06 06:27:48;;;;;;;4.43;2.90;;;;;;;-2.02;74.18;95790.97;5111961;28;20043;-68
2021/04/06 06:30:28;;;;;;;6.78;2.92;;;;;;;-1.97;73.77;95781.16;5112249;28;20057;-66
2021/04/06 06:33:17;;;;;;;6.28;3.10;;;;;;;-1.91;74.17;95785.47;5111267;28;20055;-69
2021/04/06 06:35:45;;;;;;;8.90;3.20;;;;;;;-1.86;73.35;95785.53;5112507;28;20654;-69
2021/04/06 06:38:19;;;;;;;6.65;3.42;;;;;;;-1.72;73.60;95782.41;5111464;28;20036;-69
2021/04/06 06:40:47;;;;;;;5.72;3.50;;;;;;;-1.64;73.28;95780.09;5112223;28;20048;-69
2021/04/06 06:43:15;;;;;;;6.53;3.28;;;;;;;-1.54;73.26;95787.38;5111916;28;20050;-69
2021/04/06 06:45:42;;;;;;;6.53;3.15;;;;;;;-1.47;71.94;95782.63;5111652;28;20176;-68
2021/04/06 06:48:09;;;;;;;5.22;2.70;;;;;;;-1.43;72.25;95783.72;5112271;28;20047;-70
2021/04/06 06:50:46;;;;;;;6.28;2.88;;;;;;;-1.29;71.20;95783.31;5111299;28;20043;-69
2021/04/06 06:53:12;;;;;;;4.25;2.35;;;;;;;-1.12;70.73;95789.28;5111606;28;20441;-69
2021/04/06 06:55:38;;;;;;;5.07;2.67;;;;;;;-1.01;70.25;95790.16;5111328;28;20093;-69
2021/04/06 06:58:06;;;;;;;7.38;3.17;;;;;;;-0.91;70.25;95790.22;5111677;28;20047;-69
2021/04/06 07:00:33;;;;;;;5.78;2.67;;;;;;;-0.84;70.18;95780.88;5111552;28;20663;-69
2021/04/06 07:02:59;;;;;;;7.30;2.78;;;;;;;-0.85;68.50;95771.25;5111795;28;20036;-71
2021/04/06 07:05:26;;;;;;;6.40;2.55;;;;;;;-0.80;68.40;95781.97;5111358;28;20154;-69
2021/04/06 07:08:02;;;;;;;5.43;2.85;;;;;;;-0.85;66.09;95765.91;5111106;28;20040;-71
2021/04/06 07:10:33;;;;;;;4.85;2.58;;;;;;;-0.85;67.83;95773.94;5111933;28;20047;-71
2021/04/06 07:13:06;;;;;;;6.22;2.10;;;;;;;-0.88;67.49;95769.13;5110990;28;20150;-72
2021/04/06 07:15:35;;;;;;;6.38;2.22;;;;;;;-0.85;67.85;95778.47;5111812;28;20482;-72
2021/04/06 07:18:05;;;;;;;5.40;2.35;;;;;;;-0.75;66.91;95767.03;5110199;28;20055;-72
2021/04/06 07:20:33;;;;;;;4.93;2.50;;;;;;;-0.67;68.38;95771.91;5111251;28;20043;-70
2021/04/06 07:23:02;;;;;;;5.53;2.58;;;;;;;-0.60;66.72;95775.94;5108455;28;20035;-70
2021/04/06 07:25:29;;;;;;;5.68;2.03;;;;;;;-0.70;64.93;95773.22;5107053;28;20071;-69
2021/04/06 07:27:57;;;;;;;15.60;3.40;;;;;;;-0.72;65.42;95771.88;5108661;28;20425;-69
2021/04/06 07:30:24;;;;;;;5.05;2.53;;;;;;;-0.62;66.96;95771.91;5106991;28;20403;-70
2021/04/06 07:32:52;;;;;;;5.63;3.15;;;;;;;-0.64;66.49;95774.84;5108611;28;20047;-70
2021/04/06 07:35:19;;;;;;;6.28;2.63;;;;;;;-0.62;66.90;95775.41;5106902;28;20051;-70
2021/04/06 07:37:46;;;;;;;5.85;2.60;;;;;;;-0.52;68.02;95777.31;5108582;28;20421;-70
2021/04/06 07:40:16;;;;;;;6.68;2.40;;;;;;;-0.60;67.23;95780.47;5108176;28;20043;-70
2021/04/06 07:42:45;;;;;;;6.80;2.40;;;;;;;-0.65;66.50;95780.44;5111157;28;20070;-70
2021/04/06 07:45:39;;;;;;;7.78;2.85;;;;;;;-0.62;67.02;95771.91;5110570;28;20043;-70
2021/04/06 07:48:07;;;;;;;3.83;2.47;;;;;;;-0.58;66.72;95772.97;5110136;28;20627;-70
2021/04/06 07:50:37;;;;;;;5.30;2.38;;;;;;;-0.53;67.53;95776.47;5111751;28;20052;-70
2021/04/06 07:53:24;;;;;;;7.43;2.58;;;;;;;-0.43;67.13;95774.91;5107846;28;20573;-71
2021/04/06 07:55:51;;;;;;;5.57;2.40;;;;;;;-0.64;64.61;95768.69;5110773;28;20047;-70
2021/04/06 07:58:47;;;;;;;6.70;2.33;;;;;;;-0.75;66.65;95772.38;5110037;28;20051;-69
2021/04/06 08:01:17;;;;;;;9.07;2.42;;;;;;;-0.65;66.78;95772.44;5063063;28;20046;-73
2021/04/06 08:04:04;;;;;;;7.47;2.50;;;;;;;-0.69;66.45;95772.13;5111084;28;20576;-72
2021/04/06 08:06:41;;;;;;;6.78;3.05;;;;;;;-0.75;66.11;95769.72;5109731;28;20044;-73
2021/04/06 08:09:42;;;;;;;7.20;2.40;;;;;;;-0.71;67.94;95774.28;5110325;28;20042;-73
2021/04/06 08:12:11;;;;;;;5.40;2.28;;;;;;;-0.68;68.27;95772.94;5110477;28;20418;-72
2021/04/06 08:14:38;;;;;;;4.40;2.42;;;;;;;-0.68;67.51;95767.59;5110041;28;20040;-72
2021/04/06 08:17:41;;;;;;;8.20;2.50;;;;;;;-0.67;67.59;95785.25;5110642;28;20047;-72
2021/04/06 08:20:18;;;;;;;5.82;2.45;;;;;;;-0.71;67.42;95778.81;5106506;28;20414;-72
2021/04/06 08:22:51;;;;;;;4.07;2.20;;;;;;;-0.61;67.85;95778.88;5110823;28;20046;-70
2021/04/06 08:25:43;;;;;;;7.93;2.78;;;;;;;-0.53;68.16;95786.38;5109615;28;20040;-70
2021/04/06 08:28:31;;;;;;;8.45;2.38;;;;;;;-0.40;68.00;95780.56;5111482;28;20043;-70
2021/04/06 08:31:33;;;;;;;5.45;2.35;;;;;;;-0.36;66.84;95778.97;5115127;28;20047;-70
2021/04/06 08:34:39;;;;;;;6.05;2.35;;;;;;;-0.40;67.30;95775.19;5114464;28;20043;-69
2021/04/06 08:37:12;;;;;;;11.35;3.10;;;;;;;-0.30;67.83;95769.88;5113445;28;20043;-70
2021/04/06 08:39:39;;;;;;;6.13;2.57;;;;;;;-0.29;66.58;95773.38;5115030;28;20047;-70
2021/04/06 08:42:07;;;;;;;5.10;2.70;;;;;;;-0.19;68.39;95775.28;5112851;28;20521;-70
2021/04/06 08:44:35;;;;;;;5.38;2.35;;;;;;;-0.18;66.69;95776.88;5111813;28;20274;-68
2021/04/06 08:47:02;;;;;;;6.82;2.22;;;;;;;-0.17;66.39;95781.94;5111191;28;20047;-70
2021/04/06 08:49:28;;;;;;;8.65;2.78;;;;;;;-0.22;66.73;95773.91;5110893;28;20044;-70
2021/04/06 08:51:55;;;;;;;6.82;2.03;;;;;;;-0.10;66.87;95774.50;5111212;27;20057;-69
2021/04/06 08:54:27;;;;;;;13.00;2.90;;;;;;;-0.16;66.49;95774.72;5110063;28;20074;-70
2021/04/06 08:56:55;;;;;;;8.13;3.00;;;;;;;0.01;67.78;95769.97;5111507;28;20046;-70
2021/04/06 08:59:31;;;;;;;6.13;2.63;;;;;;;0.20;67.83;95773.72;5109850;28;20051;-69
2021/04/06 09:01:59;;;;;;;5.03;2.45;;;;;;;0.02;66.24;95760.84;5111454;28;20071;-69
2021/04/06 09:04:26;;;;;;;8.20;2.63;;;;;;;0.09;66.97;95756.03;5109812;28;20573;-70
2021/04/06 09:06:53;;;;;;;5.72;2.67;;;;;;;-0.03;66.58;95772.34;5111145;28;20093;-70
2021/04/06 09:09:20;;;;;;;5.95;2.95;;;;;;;0.00;66.84;95773.72;5109994;28;20667;-71
2021/04/06 09:11:48;;;;;;;6.13;2.58;;;;;;;0.12;68.01;95770.78;5110765;28;20071;-72
2021/04/06 09:14:14;;;;;;;5.50;2.85;;;;;;;0.08;66.32;95781.22;5110113;28;20043;-73
2021/04/06 09:16:41;;;;;;;4.35;2.80;;;;;;;0.11;66.55;95780.69;5110353;28;20629;-70
2021/04/06 09:19:09;;;;;;;8.65;3.03;;;;;;;0.19;67.24;95777.47;5110294;28;20043;-70
2021/04/06 09:21:37;;;;;;;7.05;2.53;;;;;;;0.17;66.25;95773.47;5110283;27;20570;-71
2021/04/06 09:24:06;;;;;;;6.80;3.45;;;;;;;0.19;67.52;95772.13;5127708;27;20054;-73
2021/04/06 09:26:33;;;;;;;4.97;2.83;;;;;;;0.28;66.31;95763.56;5130346;27;20054;-73
2021/04/06 09:29:09;;;;;;;5.63;2.63;;;;;;;0.54;67.08;95767.06;5111703;27;20047;-72
2021/04/06 09:31:37;;;;;;;5.57;3.38;;;;;;;0.70;66.35;95774.81;5110074;28;20112;-70
2021/04/06 09:34:09;;;;;;;6.90;2.22;;;;;;;1.18;65.59;95772.56;5109406;28;20051;-70
2021/04/06 09:36:37;;;;;;;4.55;2.33;;;;;;;1.66;66.02;95761.41;5110832;28;20058;-70
2021/04/06 09:39:05;;;;;;;7.18;2.13;;;;;;;1.56;62.60;95759.56;5108690;28;20593;-71
2021/04/06 09:41:34;;;;;;;5.20;2.30;;;;;;;1.46;62.04;95762.28;5110619;28;20530;-70
2021/04/06 09:44:02;;;;;;;7.82;2.33;;;;;;;1.40;61.73;95747.28;5109527;28;20042;-71
2021/04/06 09:46:36;;;;;;;5.50;2.35;;;;;;;1.60;62.00;95749.88;5110244;28;20067;-71
2021/04/06 09:49:02;;;;;;;7.25;2.38;;;;;;;1.73;60.36;95753.88;5108796;28;20044;-72
2021/04/06 09:51:30;;;;;;;5.18;2.28;;;;;;;1.92;62.98;95748.66;5110361;27;20039;-71
2021/04/06 09:53:56;;;;;;;9.35;2.47;;;;;;;2.20;62.67;95739.88;5109750;28;20043;-72
2021/04/06 09:56:22;;;;;;;5.97;2.47;;;;;;;2.18;61.51;95736.66;5109343;28;20055;-70
2021/04/06 09:58:48;;;;;;;3.20;1.80;;;;;;;1.94;59.26;95741.13;5109995;28;20048;-71
2021/04/06 10:01:18;;;;;;;6.38;2.30;;;;;;;1.75;60.56;95732.91;5106420;28;20067;-71
2021/04/06 10:03:46;;;;;;;8.32;2.55;;;;;;;1.81;61.79;95740.66;5109764;28;20503;-71
2021/04/06 10:06:14;;;;;;;6.28;2.40;;;;;;;1.71;59.77;95732.66;5108540;28;20494;-70
2021/04/06 10:08:41;;;;;;;8.10;2.17;;;;;;;1.70;61.83;95736.41;5110523;28;20222;-71
2021/04/06 10:11:08;;;;;;;8.55;2.90;;;;;;;1.89;60.35;95738.47;5108617;28;20140;-71
2021/04/06 10:13:37;;;;;;;5.18;2.22;;;;;;;1.71;60.67;95738.03;5109688;28;20039;-70
2021/04/06 10:16:05;;;;;;;5.40;2.25;;;;;;;1.63;62.26;95730.56;5108964;28;20096;-71
2021/04/06 10:18:39;;;;;;;6.65;2.60;;;;;;;1.35;62.27;95725.84;5109476;28;20043;-71
2021/04/06 10:21:17;;;;;;;6.88;2.00;;;;;;;1.48;63.73;95728.75;5109238;28;20187;-71
2021/04/06 10:23:44;;;;;;;8.05;2.70;;;;;;;1.79;64.65;95732.09;5108081;28;20108;-71
2021/04/06 10:26:20;;;;;;;6.07;2.20;;;;;;;1.97;60.59;95724.44;5109423;28;20044;-71
2021/04/06 10:28:47;;;;;;;5.65;2.13;;;;;;;1.90;61.95;95723.97;5108779;28;20051;-70
2021/04/06 10:31:13;;;;;;;4.70;2.20;;;;;;;2.03;62.09;95720.66;5108977;28;20506;-71
2021/04/06 10:33:40;;;;;;;5.45;2.10;;;;;;;1.81;61.18;95716.50;5108564;28;20039;-70
2021/04/06 10:36:09;;;;;;;4.25;2.10;;;;;;;1.83;59.65;95724.28;5108760;28;20048;-69
2021/04/06 10:38:38;;;;;;;3.25;1.70;;;;;;;1.42;60.08;95729.06;5109217;28;20501;-70
2021/04/06 10:41:06;;;;;;;8.48;2.00;;;;;;;1.47;60.44;95729.03;5108438;28;20153;-71
2021/04/06 10:43:33;;;;;;;4.72;1.98;;;;;;;1.41;61.06;95727.44;5109223;28;20051;-71
2021/04/06 10:46:00;;;;;;;7.70;2.20;;;;;;;1.22;62.33;95733.41;5108356;28;20100;-69
2021/04/06 10:48:28;;;;;;;8.85;2.00;;;;;;;1.42;64.86;95726.38;5109506;28;20077;-70
2021/04/06 10:50:57;;;;;;;6.00;2.22;;;;;;;1.73;63.68;95722.47;5107495;28;20043;-71
2021/04/06 10:53:26;;;;;;;6.97;2.90;;;;;;;1.83;63.29;95722.41;5108092;28;20052;-71
2021/04/06 10:55:56;;;;;;;7.40;2.70;;;;;;;1.95;64.92;95730.09;5108722;28;20748;-70
2021/04/06 10:58:29;;;;;;;5.50;2.20;;;;;;;2.07;64.81;95735.94;5108089;28;20055;-71
2021/04/06 11:01:02;;;;;;;6.35;2.60;;;;;;;1.92;64.57;95729.84;5108964;28;20048;-70
2021/04/06 11:03:35;;;;;;;;;;;;;;;1.53;64.09;95719.88;5108197;28;20039;-70
2021/04/06 11:06:10;;;;;;;5.00;2.43;;;;;;;1.44;65.91;95725.00;5108470;28;19939;-71
2021/04/06 11:08:40;;;;;;;5.78;2.38;;;;;;;1.59;66.59;95716.09;5107915;28;20052;-70
2021/04/06 11:11:15;;;;;;;9.65;2.72;;;;;;;1.75;65.10;95712.22;5108329;28;20047;-70
2021/04/06 11:13:41;;;;;;;8.93;2.50;;;;;;;1.97;65.25;95698.41;5108107;28;20048;-72
2021/04/06 11:16:08;;;;;;;6.35;2.33;;;;;;;2.24;63.60;95697.94;5107991;28;20077;-70
2021/04/06 11:18:34;;;;;;;7.50;2.30;;;;;;;2.17;60.45;95694.78;5108647;28;20124;-70
2021/04/06 11:21:00;;;;;;;9.27;4.20;;;;;;;2.13;63.33;95688.34;5108003;28;20130;-71
2021/04/06 11:23:27;;;;;;;8.70;2.40;;;;;;;2.13;62.95;95699.09;5108357;27;20044;-69
2021/04/06 11:25:53;;;;;;;8.70;2.78;;;;;;;2.05;65.75;95689.75;5107305;28;20603;-72
2021/04/06 11:28:19;;;;;;;6.28;2.55;;;;;;;1.87;67.54;95689.59;5108209;28;20039;-71
2021/04/06 11:30:45;;;;;;;5.70;2.40;;;;;;;2.02;67.74;95684.94;5107616;28;20120;-72
2021/04/06 11:33:11;;;;;;;7.70;3.20;;;;;;;2.32;71.19;95688.47;5107731;28;20089;-71
2021/04/06 11:35:38;;;;;;;8.13;2.70;;;;;;;2.53;70.78;95681.03;5096340;28;20621;-69
2021/04/06 11:38:04;;;;;;;5.57;2.38;;;;;;;2.68;68.35;95675.50;5107487;28;20047;-72
2021/04/06 11:40:30;;;;;;;8.18;4.35;;;;;;;3.05;68.21;95674.84;5108008;28;20109;-69
2021/04/06 11:42:57;;;;;;;4.70;2.60;;;;;;;2.92;65.45;95672.03;5107561;28;20054;-69
2021/04/06 11:45:24;;;;;;;6.25;2.80;;;;;;;2.99;68.85;95670.63;5107774;28;20105;-69